sensor_id;sensor_type;location;lat;lon;timestamp;pressure;altitude;pressure_sealevel;temperature;humidity
27334;BME280;14817;57.104;-2.094;2023-03-23T00:01:04;97374.03;;;7.24;100.00
27334;BME280;14817;57.104;-2.094;2023-03-23T00:03:30;97379.34;;;7.24;100.00
27334;BME280;14817;57.104;-2.094;2023-03-23T00:06:00;97370.53;;;7.23;100.00
27334;BME280;14817;57.104;-2.094;2023-03-23T00:08:34;97373.81;;;7.32;100.00
27334;BME280;14817;57.104;-2.094;2023-03-23T00:11:05;97362.94;;;7.33;100.00
27334;BME280;14817;57.104;-2.094;2023-03-23T00:13:33;97353.69;;;7.36;100.00
27334;BME280;14817;57.104;-2.094;2023-03-23T00:15:59;97355.16;;;7.32;100.00
27334;BME280;14817;57.104;-2.094;2023-03-23T00:18:25;97352.50;;;7.32;100.00
27334;BME280;14817;57.104;-2.094;2023-03-23T00:20:56;97346.56;;;7.30;100.00
27334;BME280;14817;57.104;-2.094;2023-03-23T00:23:25;97343.31;;;7.28;100.00
27334;BME280;14817;57.104;-2.094;2023-03-23T00:25:55;97330.00;;;7.28;100.00
27334;BME280;14817;57.104;-2.094;2023-03-23T00:28:26;97325.69;;;7.27;100.00
27334;BME280;14817;57.104;-2.094;2023-03-23T00:31:00;97325.06;;;7.25;100.00
27334;BME280;14817;57.104;-2.094;2023-03-23T00:33:30;97323.25;;;7.19;100.00
27334;BME280;14817;57.104;-2.094;2023-03-23T00:35:59;97320.59;;;7.19;100.00
27334;BME280;14817;57.104;-2.094;2023-03-23T00:38:26;97317.53;;;7.22;100.00
27334;BME280;14817;57.104;-2.094;2023-03-23T00:40:52;97318.78;;;7.19;100.00
27334;BME280;14817;57.104;-2.094;2023-03-23T00:43:21;97316.72;;;7.14;100.00
27334;BME280;14817;57.104;-2.094;2023-03-23T00:45:50;97311.22;;;7.09;100.00
27334;BME280;14817;57.104;-2.094;2023-03-23T00:48:20;97301.19;;;7.05;100.00
27334;BME280;14817;57.104;-2.094;2023-03-23T00:50:46;97311.25;;;7.03;100.00
27334;BME280;14817;57.104;-2.094;2023-03-23T00:53:11;97301.59;;;7.02;100.00
27334;BME280;14817;57.104;-2.094;2023-03-23T00:55:37;97292.22;;;6.99;100.00
27334;BME280;14817;57.104;-2.094;2023-03-23T00:58:03;97282.78;;;7.03;100.00
27334;BME280;14817;57.104;-2.094;2023-03-23T01:00:29;97285.41;;;7.10;100.00
27334;BME280;14817;57.104;-2.094;2023-03-23T01:02:54;97273.97;;;7.09;100.00
27334;BME280;14817;57.104;-2.094;2023-03-23T01:05:20;97279.72;;;7.06;100.00
27334;BME280;14817;57.104;-2.094;2023-03-23T01:07:46;97279.50;;;7.01;100.00
27334;BME280;14817;57.104;-2.094;2023-03-23T01:10:13;97275.22;;;7.00;100.00
27334;BME280;14817;57.104;-2.094;2023-03-23T01:12:43;97271.97;;;6.98;100.00
27334;BME280;14817;57.104;-2.094;2023-03-23T01:15:13;97265.19;;;7.02;100.00
27334;BME280;14817;57.104;-2.094;2023-03-23T01:17:40;97259.47;;;6.99;100.00
27334;BME280;14817;57.104;-2.094;2023-03-23T01:20:06;97256.59;;;7.00;100.00
27334;BME280;14817;57.104;-2.094;2023-03-23T01:22:33;97255.16;;;6.98;100.00
27334;BME280;14817;57.104;-2.094;2023-03-23T01:24:58;97257.84;;;6.91;100.00
27334;BME280;14817;57.104;-2.094;2023-03-23T01:27:24;97257.22;;;6.95;100.00
27334;BME280;14817;57.104;-2.094;2023-03-23T01:29:49;97251.91;;;6.95;100.00
27334;BME280;14817;57.104;-2.094;2023-03-23T01:32:15;97256.63;;;6.93;100.00
27334;BME280;14817;57.104;-2.094;2023-03-23T01:34:41;97248.03;;;6.98;100.00
27334;BME280;14817;57.104;-2.094;2023-03-23T01:37:08;97252.50;;;6.98;100.00
27334;BME280;14817;57.104;-2.094;2023-03-23T01:39:36;97252.94;;;6.94;100.00
27334;BME280;14817;57.104;-2.094;2023-03-23T01:42:03;97254.56;;;7.02;100.00
27334;BME280;14817;57.104;-2.094;2023-03-23T01:47:04;97248.41;;;6.95;100.00
27334;BME280;14817;57.104;-2.094;2023-03-23T01:49:34;97237.81;;;6.88;100.00
27334;BME280;14817;57.104;-2.094;2023-03-23T01:52:05;97239.06;;;6.86;100.00
27334;BME280;14817;57.104;-2.094;2023-03-23T01:54:36;97234.16;;;6.76;100.00
27334;BME280;14817;57.104;-2.094;2023-03-23T01:57:07;97232.34;;;6.77;100.00
27334;BME280;14817;57.104;-2.094;2023-03-23T01:59:36;97230.28;;;6.72;100.00
27334;BME280;14817;57.104;-2.094;2023-03-23T02:02:27;97226.63;;;6.73;100.00
27334;BME280;14817;57.104;-2.094;2023-03-23T02:04:57;97229.66;;;6.70;100.00
27334;BME280;14817;57.104;-2.094;2023-03-23T02:07:27;97230.09;;;6.67;100.00
27334;BME280;14817;57.104;-2.094;2023-03-23T02:09:55;97232.56;;;6.68;100.00
27334;BME280;14817;57.104;-2.094;2023-03-23T02:12:21;97218.03;;;6.71;100.00
27334;BME280;14817;57.104;-2.094;2023-03-23T02:14:49;97218.47;;;6.68;100.00
27334;BME280;14817;57.104;-2.094;2023-03-23T02:17:33;97211.31;;;6.62;100.00
27334;BME280;14817;57.104;-2.094;2023-03-23T02:31:28;97189.81;;;6.63;100.00
27334;BME280;14817;57.104;-2.094;2023-03-23T02:34:13;97186.38;;;6.56;100.00
27334;BME280;14817;57.104;-2.094;2023-03-23T02:39:33;97187.63;;;6.47;100.00
27334;BME280;14817;57.104;-2.094;2023-03-23T02:42:05;97188.41;;;6.54;100.00
27334;BME280;14817;57.104;-2.094;2023-03-23T02:44:33;97181.06;;;6.49;100.00
27334;BME280;14817;57.104;-2.094;2023-03-23T02:47:03;97177.38;;;6.50;100.00
27334;BME280;14817;57.104;-2.094;2023-03-23T02:49:32;97173.72;;;6.51;100.00
27334;BME280;14817;57.104;-2.094;2023-03-23T02:52:05;97168.81;;;6.55;100.00
27334;BME280;14817;57.104;-2.094;2023-03-23T02:54:33;97169.41;;;6.50;100.00
27334;BME280;14817;57.104;-2.094;2023-03-23T02:57:00;97163.28;;;6.50;100.00
27334;BME280;14817;57.104;-2.094;2023-03-23T02:59:30;97167.16;;;6.54;100.00
27334;BME280;14817;57.104;-2.094;2023-03-23T03:02:02;97170.03;;;6.46;100.00
27334;BME280;14817;57.104;-2.094;2023-03-23T03:04:30;97165.38;;;6.34;100.00
27334;BME280;14817;57.104;-2.094;2023-03-23T03:12:24;97175.78;;;6.43;100.00
27334;BME280;14817;57.104;-2.094;2023-03-23T03:17:59;97150.66;;;6.32;100.00
27334;BME280;14817;57.104;-2.094;2023-03-23T03:20:26;97161.91;;;6.27;100.00
27334;BME280;14817;57.104;-2.094;2023-03-23T03:22:55;97163.13;;;6.25;100.00
27334;BME280;14817;57.104;-2.094;2023-03-23T03:25:23;97167.44;;;6.19;100.00
27334;BME280;14817;57.104;-2.094;2023-03-23T03:27:53;97154.19;;;6.12;100.00
27334;BME280;14817;57.104;-2.094;2023-03-23T03:30:30;97150.91;;;6.10;100.00
27334;BME280;14817;57.104;-2.094;2023-03-23T03:32:59;97152.75;;;6.03;100.00
27334;BME280;14817;57.104;-2.094;2023-03-23T03:35:26;97160.34;;;6.00;100.00
27334;BME280;14817;57.104;-2.094;2023-03-23T03:37:52;97158.06;;;5.97;100.00
27334;BME280;14817;57.104;-2.094;2023-03-23T03:40:20;97166.81;;;5.90;100.00
27334;BME280;14817;57.104;-2.094;2023-03-23T03:42:46;97186.03;;;5.86;100.00
27334;BME280;14817;57.104;-2.094;2023-03-23T03:45:18;97178.69;;;5.81;100.00
27334;BME280;14817;57.104;-2.094;2023-03-23T03:47:44;97181.75;;;5.85;100.00
27334;BME280;14817;57.104;-2.094;2023-03-23T03:50:10;97182.16;;;5.82;100.00
27334;BME280;14817;57.104;-2.094;2023-03-23T03:52:37;97189.31;;;5.81;100.00
27334;BME280;14817;57.104;-2.094;2023-03-23T03:55:06;97183.81;;;5.83;100.00
27334;BME280;14817;57.104;-2.094;2023-03-23T03:57:34;97189.50;;;5.73;100.00
27334;BME280;14817;57.104;-2.094;2023-03-23T04:00:07;97178.28;;;5.71;100.00
27334;BME280;14817;57.104;-2.094;2023-03-23T04:02:44;97184.81;;;5.68;100.00
27334;BME280;14817;57.104;-2.094;2023-03-23T04:05:17;97177.47;;;5.64;100.00
27334;BME280;14817;57.104;-2.094;2023-03-23T04:07:47;97190.13;;;5.62;100.00
27334;BME280;14817;57.104;-2.094;2023-03-23T04:10:14;97192.97;;;5.53;100.00
27334;BME280;14817;57.104;-2.094;2023-03-23T04:12:43;97204.59;;;5.52;100.00
27334;BME280;14817;57.104;-2.094;2023-03-23T04:15:27;97202.34;;;5.56;100.00
27334;BME280;14817;57.104;-2.094;2023-03-23T04:17:52;97195.00;;;5.51;100.00
27334;BME280;14817;57.104;-2.094;2023-03-23T04:20:18;97212.97;;;5.63;100.00
27334;BME280;14817;57.104;-2.094;2023-03-23T04:22:49;97216.66;;;5.55;100.00
27334;BME280;14817;57.104;-2.094;2023-03-23T04:25:16;97224.00;;;5.53;100.00
27334;BME280;14817;57.104;-2.094;2023-03-23T04:27:49;97227.28;;;5.55;100.00
27334;BME280;14817;57.104;-2.094;2023-03-23T04:30:24;97237.28;;;5.53;100.00
27334;BME280;14817;57.104;-2.094;2023-03-23T04:33:02;97225.63;;;5.47;100.00
27334;BME280;14817;57.104;-2.094;2023-03-23T04:35:30;97218.88;;;5.51;100.00
27334;BME280;14817;57.104;-2.094;2023-03-23T04:38:07;97228.69;;;5.51;100.00
27334;BME280;14817;57.104;-2.094;2023-03-23T04:40:36;97237.66;;;5.50;100.00
27334;BME280;14817;57.104;-2.094;2023-03-23T04:43:12;97234.81;;;5.51;100.00
27334;BME280;14817;57.104;-2.094;2023-03-23T04:46:00;97236.22;;;5.47;100.00
27334;BME280;14817;57.104;-2.094;2023-03-23T04:48:31;97241.34;;;5.49;100.00
27334;BME280;14817;57.104;-2.094;2023-03-23T04:51:16;97242.78;;;5.51;100.00
27334;BME280;14817;57.104;-2.094;2023-03-23T04:53:44;97242.16;;;5.49;100.00
27334;BME280;14817;57.104;-2.094;2023-03-23T04:56:10;97247.47;;;5.49;100.00
27334;BME280;14817;57.104;-2.094;2023-03-23T04:58:41;97245.63;;;5.50;100.00
27334;BME280;14817;57.104;-2.094;2023-03-23T05:01:09;97244.81;;;5.49;100.00
27334;BME280;14817;57.104;-2.094;2023-03-23T05:03:43;97251.78;;;5.50;100.00
27334;BME280;14817;57.104;-2.094;2023-03-23T05:06:10;97252.16;;;5.54;100.00
27334;BME280;14817;57.104;-2.094;2023-03-23T05:08:37;97253.59;;;5.50;100.00
27334;BME280;14817;57.104;-2.094;2023-03-23T05:11:06;97258.69;;;5.51;100.00
27334;BME280;14817;57.104;-2.094;2023-03-23T05:13:36;97260.94;;;5.48;100.00
27334;BME280;14817;57.104;-2.094;2023-03-23T05:16:05;97268.88;;;5.48;100.00
27334;BME280;14817;57.104;-2.094;2023-03-23T05:18:33;97276.06;;;5.54;100.00
27334;BME280;14817;57.104;-2.094;2023-03-23T05:21:03;97278.94;;;5.59;100.00
27334;BME280;14817;57.104;-2.094;2023-03-23T05:23:33;97275.44;;;5.59;100.00
27334;BME280;14817;57.104;-2.094;2023-03-23T05:26:07;97293.22;;;5.65;100.00
27334;BME280;14817;57.104;-2.094;2023-03-23T05:28:33;97297.13;;;5.62;100.00
27334;BME280;14817;57.104;-2.094;2023-03-23T05:31:23;97293.66;;;5.62;100.00
27334;BME280;14817;57.104;-2.094;2023-03-23T05:33:51;97301.63;;;5.62;100.00
27334;BME280;14817;57.104;-2.094;2023-03-23T05:36:30;97306.09;;;5.61;100.00
27334;BME280;14817;57.104;-2.094;2023-03-23T05:39:07;97313.06;;;5.69;100.00
27334;BME280;14817;57.104;-2.094;2023-03-23T05:42:07;97311.63;;;5.66;100.00
27334;BME280;14817;57.104;-2.094;2023-03-23T05:44:47;97311.81;;;5.71;100.00
27334;BME280;14817;57.104;-2.094;2023-03-23T05:47:13;97317.13;;;5.71;100.00
27334;BME280;14817;57.104;-2.094;2023-03-23T05:49:45;97320.81;;;5.70;100.00
27334;BME280;14817;57.104;-2.094;2023-03-23T05:52:15;97317.75;;;5.67;100.00
27334;BME280;14817;57.104;-2.094;2023-03-23T05:54:41;97325.31;;;5.70;100.00
27334;BME280;14817;57.104;-2.094;2023-03-23T05:57:07;97321.63;;;5.71;100.00
27334;BME280;14817;57.104;-2.094;2023-03-23T05:59:43;97329.41;;;5.66;100.00
27334;BME280;14817;57.104;-2.094;2023-03-23T06:02:15;97334.91;;;5.71;100.00
27334;BME280;14817;57.104;-2.094;2023-03-23T06:04:41;97339.59;;;5.69;100.00
27334;BME280;14817;57.104;-2.094;2023-03-23T06:07:15;97342.66;;;5.66;100.00
27334;BME280;14817;57.104;-2.094;2023-03-23T06:09:49;97328.59;;;5.72;100.00
27334;BME280;14817;57.104;-2.094;2023-03-23T06:12:37;97340.00;;;5.66;100.00
27334;BME280;14817;57.104;-2.094;2023-03-23T06:15:04;97344.91;;;5.62;100.00
27334;BME280;14817;57.104;-2.094;2023-03-23T06:17:50;97349.59;;;5.67;100.00
27334;BME280;14817;57.104;-2.094;2023-03-23T06:20:24;97367.78;;;5.63;100.00
27334;BME280;14817;57.104;-2.094;2023-03-23T06:22:51;97374.72;;;5.64;100.00
27334;BME280;14817;57.104;-2.094;2023-03-23T06:25:27;97375.13;;;5.61;100.00
27334;BME280;14817;57.104;-2.094;2023-03-23T06:27:55;97384.28;;;5.59;100.00
27334;BME280;14817;57.104;-2.094;2023-03-23T06:30:21;97388.75;;;5.51;100.00
27334;BME280;14817;57.104;-2.094;2023-03-23T06:32:47;97396.53;;;5.53;100.00
27334;BME280;14817;57.104;-2.094;2023-03-23T06:35:15;97395.31;;;5.56;100.00
27334;BME280;14817;57.104;-2.094;2023-03-23T06:38:00;97393.91;;;5.60;100.00
27334;BME280;14817;57.104;-2.094;2023-03-23T06:40:47;97391.25;;;5.60;100.00
27334;BME280;14817;57.104;-2.094;2023-03-23T06:43:14;97386.94;;;6.07;100.00
27334;BME280;14817;57.104;-2.094;2023-03-23T06:45:52;97383.88;;;7.03;100.00
27334;BME280;14817;57.104;-2.094;2023-03-23T06:48:38;97395.72;;;7.21;100.00
27334;BME280;14817;57.104;-2.094;2023-03-23T06:51:05;97382.50;;;7.59;100.00
27334;BME280;14817;57.104;-2.094;2023-03-23T06:53:32;97399.31;;;8.05;100.00
27334;BME280;14817;57.104;-2.094;2023-03-23T06:55:59;97388.16;;;8.78;100.00
27334;BME280;14817;57.104;-2.094;2023-03-23T06:58:26;97398.44;;;8.99;100.00
27334;BME280;14817;57.104;-2.094;2023-03-23T07:00:56;97405.41;;;9.44;100.00
27334;BME280;14817;57.104;-2.094;2023-03-23T07:03:27;97409.28;;;9.48;100.00
27334;BME280;14817;57.104;-2.094;2023-03-23T07:05:54;97419.44;;;9.39;100.00
27334;BME280;14817;57.104;-2.094;2023-03-23T07:08:23;97416.69;;;9.65;100.00
27334;BME280;14817;57.104;-2.094;2023-03-23T07:10:51;97418.13;;;9.05;100.00
27334;BME280;14817;57.104;-2.094;2023-03-23T07:13:22;97415.78;;;8.90;100.00
27334;BME280;14817;57.104;-2.094;2023-03-23T07:15:52;97415.81;;;9.52;100.00
27334;BME280;14817;57.104;-2.094;2023-03-23T07:18:18;97417.59;;;9.58;100.00
27334;BME280;14817;57.104;-2.094;2023-03-23T07:20:50;97416.84;;;9.70;100.00
27334;BME280;14817;57.104;-2.094;2023-03-23T07:23:18;97417.63;;;9.89;100.00
27334;BME280;14817;57.104;-2.094;2023-03-23T07:25:49;97409.44;;;10.51;100.00
27334;BME280;14817;57.104;-2.094;2023-03-23T07:28:21;97416.34;;;10.10;100.00
27334;BME280;14817;57.104;-2.094;2023-03-23T07:30:48;97414.81;;;10.74;100.00
27334;BME280;14817;57.104;-2.094;2023-03-23T07:33:14;97424.72;;;10.13;100.00
27334;BME280;14817;57.104;-2.094;2023-03-23T07:35:40;97419.41;;;10.44;100.00
27334;BME280;14817;57.104;-2.094;2023-03-23T07:38:10;97419.91;;;10.64;100.00
27334;BME280;14817;57.104;-2.094;2023-03-23T07:40:37;97428.25;;;10.98;100.00
27334;BME280;14817;57.104;-2.094;2023-03-23T07:43:20;97428.59;;;11.01;100.00
27334;BME280;14817;57.104;-2.094;2023-03-23T07:46:06;97434.47;;;10.68;100.00
27334;BME280;14817;57.104;-2.094;2023-03-23T07:48:55;97426.84;;;11.07;100.00
27334;BME280;14817;57.104;-2.094;2023-03-23T07:51:26;97423.88;;;10.61;100.00
27334;BME280;14817;57.104;-2.094;2023-03-23T07:53:54;97431.06;;;11.38;100.00
27334;BME280;14817;57.104;-2.094;2023-03-23T07:56:58;97428.72;;;11.30;100.00
27334;BME280;14817;57.104;-2.094;2023-03-23T07:59:31;97440.94;;;11.61;100.00
27334;BME280;14817;57.104;-2.094;2023-03-23T08:01:58;97433.50;;;12.16;100.00
27334;BME280;14817;57.104;-2.094;2023-03-23T08:04:30;97444.53;;;11.79;100.00
27334;BME280;14817;57.104;-2.094;2023-03-23T08:07:20;97452.91;;;12.06;100.00
27334;BME280;14817;57.104;-2.094;2023-03-23T08:09:52;97456.53;;;11.88;100.00
27334;BME280;14817;57.104;-2.094;2023-03-23T08:12:39;97452.28;;;12.90;100.00
27334;BME280;14817;57.104;-2.094;2023-03-23T08:15:39;97448.25;;;12.30;100.00
27334;BME280;14817;57.104;-2.094;2023-03-23T08:18:27;97452.91;;;11.82;100.00
27334;BME280;14817;57.104;-2.094;2023-03-23T08:20:53;97462.03;;;12.22;100.00
27334;BME280;14817;57.104;-2.094;2023-03-23T08:23:42;97467.84;;;12.31;100.00
27334;BME280;14817;57.104;-2.094;2023-03-23T08:26:19;97462.31;;;12.09;100.00
27334;BME280;14817;57.104;-2.094;2023-03-23T08:28:55;97474.34;;;12.92;100.00
27334;BME280;14817;57.104;-2.094;2023-03-23T08:31:39;97479.25;;;12.95;100.00
27334;BME280;14817;57.104;-2.094;2023-03-23T08:34:24;97478.34;;;12.32;100.00
27334;BME280;14817;57.104;-2.094;2023-03-23T08:37:10;97476.81;;;13.11;100.00
27334;BME280;14817;57.104;-2.094;2023-03-23T08:40:13;97487.25;;;13.41;100.00
27334;BME280;14817;57.104;-2.094;2023-03-23T08:42:46;97479.16;;;13.58;100.00
27334;BME280;14817;57.104;-2.094;2023-03-23T08:45:33;97482.91;;;13.23;100.00
27334;BME280;14817;57.104;-2.094;2023-03-23T08:48:17;97494.03;;;12.81;100.00
27334;BME280;14817;57.104;-2.094;2023-03-23T08:51:03;97480.78;;;12.91;100.00
27334;BME280;14817;57.104;-2.094;2023-03-23T08:53:47;97487.59;;;12.99;100.00
27334;BME280;14817;57.104;-2.094;2023-03-23T08:56:42;97502.13;;;12.40;100.00
27334;BME280;14817;57.104;-2.094;2023-03-23T08:59:46;97497.72;;;13.08;100.00
27334;BME280;14817;57.104;-2.094;2023-03-23T09:02:32;97490.34;;;13.33;100.00
27334;BME280;14817;57.104;-2.094;2023-03-23T09:05:14;97499.03;;;13.06;100.00
27334;BME280;14817;57.104;-2.094;2023-03-23T09:07:42;97510.22;;;12.86;100.00
27334;BME280;14817;57.104;-2.094;2023-03-23T09:10:08;97515.06;;;12.43;100.00
27334;BME280;14817;57.104;-2.094;2023-03-23T09:12:35;97506.25;;;12.60;100.00
27334;BME280;14817;57.104;-2.094;2023-03-23T09:15:03;97515.97;;;13.06;100.00
27334;BME280;14817;57.104;-2.094;2023-03-23T09:17:38;97515.59;;;12.57;100.00
27334;BME280;14817;57.104;-2.094;2023-03-23T09:20:05;97509.56;;;12.79;100.00
27334;BME280;14817;57.104;-2.094;2023-03-23T09:22:40;97507.41;;;12.64;100.00
27334;BME280;14817;57.104;-2.094;2023-03-23T09:25:07;97506.44;;;12.70;100.00
27334;BME280;14817;57.104;-2.094;2023-03-23T09:27:35;97510.03;;;12.47;100.00
27334;BME280;14817;57.104;-2.094;2023-03-23T09:30:06;97513.53;;;12.48;100.00
27334;BME280;14817;57.104;-2.094;2023-03-23T09:32:35;97516.16;;;12.88;100.00
27334;BME280;14817;57.104;-2.094;2023-03-23T09:35:02;97518.16;;;12.64;100.00
27334;BME280;14817;57.104;-2.094;2023-03-23T09:37:29;97523.34;;;11.66;100.00
27334;BME280;14817;57.104;-2.094;2023-03-23T09:39:55;97513.44;;;11.90;100.00
27334;BME280;14817;57.104;-2.094;2023-03-23T09:45:36;97524.91;;;12.26;100.00
27334;BME280;14817;57.104;-2.094;2023-03-23T09:48:13;97524.03;;;12.49;100.00
27334;BME280;14817;57.104;-2.094;2023-03-23T09:50:45;97523.34;;;12.99;100.00
27334;BME280;14817;57.104;-2.094;2023-03-23T09:55:38;97524.66;;;13.42;100.00
27334;BME280;14817;57.104;-2.094;2023-03-23T09:58:18;97523.53;;;13.26;100.00
27334;BME280;14817;57.104;-2.094;2023-03-23T10:00:57;97536.66;;;12.49;100.00
27334;BME280;14817;57.104;-2.094;2023-03-23T10:03:31;97533.66;;;12.91;100.00
27334;BME280;14817;57.104;-2.094;2023-03-23T10:05:58;97542.16;;;13.16;100.00
27334;BME280;14817;57.104;-2.094;2023-03-23T10:08:35;97542.38;;;13.60;100.00
27334;BME280;14817;57.104;-2.094;2023-03-23T10:11:03;97540.69;;;12.92;100.00
27334;BME280;14817;57.104;-2.094;2023-03-23T10:16:36;97538.38;;;12.83;100.00
27334;BME280;14817;57.104;-2.094;2023-03-23T10:21:52;97545.53;;;12.37;100.00
27334;BME280;14817;57.104;-2.094;2023-03-23T10:24:26;97538.88;;;12.80;100.00
27334;BME280;14817;57.104;-2.094;2023-03-23T10:27:33;97549.31;;;12.94;100.00
27334;BME280;14817;57.104;-2.094;2023-03-23T10:30:30;97544.91;;;12.87;100.00
27334;BME280;14817;57.104;-2.094;2023-03-23T10:33:02;97548.78;;;13.08;100.00
27334;BME280;14817;57.104;-2.094;2023-03-23T10:35:33;97562.47;;;12.78;100.00
27334;BME280;14817;57.104;-2.094;2023-03-23T10:38:04;97568.69;;;12.96;100.00
27334;BME280;14817;57.104;-2.094;2023-03-23T10:40:31;97560.88;;;12.94;100.00
27334;BME280;14817;57.104;-2.094;2023-03-23T10:43:00;97573.84;;;12.97;100.00
27334;BME280;14817;57.104;-2.094;2023-03-23T10:45:28;97579.63;;;13.06;100.00
27334;BME280;14817;57.104;-2.094;2023-03-23T10:48:19;97576.22;;;13.11;100.00
27334;BME280;14817;57.104;-2.094;2023-03-23T10:50:49;97575.47;;;12.70;100.00
27334;BME280;14817;57.104;-2.094;2023-03-23T10:54:11;97573.91;;;12.74;100.00
27334;BME280;14817;57.104;-2.094;2023-03-23T10:56:25;97574.69;;;12.86;100.00
27334;BME280;14817;57.104;-2.094;2023-03-23T10:58:52;97583.03;;;13.18;100.00
27334;BME280;14817;57.104;-2.094;2023-03-23T11:01:20;97588.06;;;11.93;100.00
27334;BME280;14817;57.104;-2.094;2023-03-23T11:03:53;97590.38;;;12.25;100.00
27334;BME280;14817;57.104;-2.094;2023-03-23T11:06:22;97594.34;;;12.75;100.00
27334;BME280;14817;57.104;-2.094;2023-03-23T11:08:52;97601.44;;;13.10;100.00
27334;BME280;14817;57.104;-2.094;2023-03-23T11:11:25;97600.44;;;13.27;100.00
27334;BME280;14817;57.104;-2.094;2023-03-23T11:14:01;97610.50;;;13.20;100.00
27334;BME280;14817;57.104;-2.094;2023-03-23T11:16:32;97608.63;;;12.63;100.00
27334;BME280;14817;57.104;-2.094;2023-03-23T11:19:11;97614.13;;;12.57;100.00
27334;BME280;14817;57.104;-2.094;2023-03-23T11:21:38;97624.69;;;12.23;100.00
27334;BME280;14817;57.104;-2.094;2023-03-23T11:24:05;97618.69;;;11.74;100.00
27334;BME280;14817;57.104;-2.094;2023-03-23T11:26:35;97628.72;;;11.78;100.00
27334;BME280;14817;57.104;-2.094;2023-03-23T11:29:15;97622.41;;;12.43;100.00
27334;BME280;14817;57.104;-2.094;2023-03-23T11:32:05;97617.41;;;12.59;100.00
27334;BME280;14817;57.104;-2.094;2023-03-23T11:37:07;97631.16;;;11.80;100.00
27334;BME280;14817;57.104;-2.094;2023-03-23T11:39:58;97631.31;;;11.97;100.00
27334;BME280;14817;57.104;-2.094;2023-03-23T11:58:40;97627.44;;;12.92;100.00
27334;BME280;14817;57.104;-2.094;2023-03-23T12:03:51;97642.38;;;12.48;100.00
27334;BME280;14817;57.104;-2.094;2023-03-23T12:09:15;97647.16;;;12.57;100.00
27334;BME280;14817;57.104;-2.094;2023-03-23T12:14:44;97646.38;;;13.14;100.00
27334;BME280;14817;57.104;-2.094;2023-03-23T12:19:50;97648.25;;;12.85;100.00
27334;BME280;14817;57.104;-2.094;2023-03-23T12:30:43;97635.16;;;12.01;100.00
27334;BME280;14817;57.104;-2.094;2023-03-23T12:36:22;97639.69;;;12.59;100.00
27334;BME280;14817;57.104;-2.094;2023-03-23T12:42:14;97640.66;;;12.06;100.00
27334;BME280;14817;57.104;-2.094;2023-03-23T12:44:48;97643.22;;;12.13;100.00
27334;BME280;14817;57.104;-2.094;2023-03-23T12:52:54;97638.66;;;12.13;100.00
27334;BME280;14817;57.104;-2.094;2023-03-23T12:55:39;97641.22;;;12.20;100.00
27334;BME280;14817;57.104;-2.094;2023-03-23T12:58:09;97656.19;;;11.62;100.00
27334;BME280;14817;57.104;-2.094;2023-03-23T13:03:32;97660.66;;;11.80;100.00
27334;BME280;14817;57.104;-2.094;2023-03-23T13:06:18;97650.06;;;11.97;100.00
27334;BME280;14817;57.104;-2.094;2023-03-23T13:11:32;97659.28;;;12.01;100.00
27334;BME280;14817;57.104;-2.094;2023-03-23T13:25:08;97660.88;;;11.78;100.00
27334;BME280;14817;57.104;-2.094;2023-03-23T13:27:39;97659.78;;;11.56;100.00
27334;BME280;14817;57.104;-2.094;2023-03-23T13:30:18;97664.22;;;11.62;100.00
27334;BME280;14817;57.104;-2.094;2023-03-23T13:32:48;97656.88;;;11.69;100.00
27334;BME280;14817;57.104;-2.094;2023-03-23T13:35:17;97659.81;;;11.68;100.00
27334;BME280;14817;57.104;-2.094;2023-03-23T13:37:46;97662.28;;;11.81;100.00
27334;BME280;14817;57.104;-2.094;2023-03-23T13:40:30;97658.44;;;11.77;100.00
27334;BME280;14817;57.104;-2.094;2023-03-23T13:42:59;97660.88;;;11.78;100.00
27334;BME280;14817;57.104;-2.094;2023-03-23T13:53:25;97673.38;;;11.42;100.00
27334;BME280;14817;57.104;-2.094;2023-03-23T13:56:59;97668.56;;;11.63;100.00
27334;BME280;14817;57.104;-2.094;2023-03-23T13:59:16;97666.22;;;11.67;100.00
27334;BME280;14817;57.104;-2.094;2023-03-23T14:01:43;97675.44;;;11.71;100.00
27334;BME280;14817;57.104;-2.094;2023-03-23T14:04:16;97677.59;;;10.71;100.00
27334;BME280;14817;57.104;-2.094;2023-03-23T14:06:44;97672.75;;;10.61;100.00
27334;BME280;14817;57.104;-2.094;2023-03-23T14:09:25;97677.19;;;10.31;100.00
27334;BME280;14817;57.104;-2.094;2023-03-23T14:14:34;97688.66;;;10.38;100.00
27334;BME280;14817;57.104;-2.094;2023-03-23T14:17:16;97703.25;;;10.60;100.00
27334;BME280;14817;57.104;-2.094;2023-03-23T14:19:46;97692.03;;;10.27;100.00
27334;BME280;14817;57.104;-2.094;2023-03-23T14:22:22;97691.53;;;10.36;100.00
27334;BME280;14817;57.104;-2.094;2023-03-23T14:24:49;97694.69;;;10.27;100.00
27334;BME280;14817;57.104;-2.094;2023-03-23T14:27:19;97678.47;;;10.21;100.00
27334;BME280;14817;57.104;-2.094;2023-03-23T14:29:45;97692.41;;;10.30;100.00
27334;BME280;14817;57.104;-2.094;2023-03-23T14:32:15;97689.91;;;10.35;100.00
27334;BME280;14817;57.104;-2.094;2023-03-23T14:34:41;97691.38;;;10.31;100.00
27334;BME280;14817;57.104;-2.094;2023-03-23T14:37:13;97702.50;;;10.03;100.00
27334;BME280;14817;57.104;-2.094;2023-03-23T14:39:38;97698.31;;;10.14;100.00
27334;BME280;14817;57.104;-2.094;2023-03-23T14:42:19;97697.19;;;10.47;100.00
27334;BME280;14817;57.104;-2.094;2023-03-23T14:44:49;97702.47;;;10.53;100.00
27334;BME280;14817;57.104;-2.094;2023-03-23T14:47:19;97700.75;;;10.15;100.00
27334;BME280;14817;57.104;-2.094;2023-03-23T14:49:46;97698.81;;;9.72;100.00
27334;BME280;14817;57.104;-2.094;2023-03-23T14:52:17;97695.13;;;9.73;100.00
27334;BME280;14817;57.104;-2.094;2023-03-23T14:54:44;97695.91;;;9.80;100.00
27334;BME280;14817;57.104;-2.094;2023-03-23T14:57:15;97707.44;;;9.74;100.00
27334;BME280;14817;57.104;-2.094;2023-03-23T14:59:46;97704.22;;;9.66;100.00
27334;BME280;14817;57.104;-2.094;2023-03-23T15:02:36;97699.06;;;9.71;100.00
27334;BME280;14817;57.104;-2.094;2023-03-23T15:07:38;97706.63;;;9.42;100.00
27334;BME280;14817;57.104;-2.094;2023-03-23T15:10:15;97707.66;;;9.73;100.00